sensor_id;sensor_type;location;lat;lon;timestamp;temperature;humidity
29817;DHT22;16805;52.956;5.906;2023-07-24T00:02:04;18.10;99.90
29817;DHT22;16805;52.956;5.906;2023-07-24T00:04:34;18.10;99.90
29817;DHT22;16805;52.956;5.906;2023-07-24T00:07:00;18.10;99.90
29817;DHT22;16805;52.956;5.906;2023-07-24T00:09:26;18.10;99.90
29817;DHT22;16805;52.956;5.906;2023-07-24T00:11:52;18.10;99.90
29817;DHT22;16805;52.956;5.906;2023-07-24T00:14:17;18.10;99.90
29817;DHT22;16805;52.956;5.906;2023-07-24T00:16:43;18.10;99.90
29817;DHT22;16805;52.956;5.906;2023-07-24T00:19:09;18.10;99.90
29817;DHT22;16805;52.956;5.906;2023-07-24T00:21:34;18.10;99.90
29817;DHT22;16805;52.956;5.906;2023-07-24T00:24:00;18.10;99.90
29817;DHT22;16805;52.956;5.906;2023-07-24T00:26:26;18.20;99.90
29817;DHT22;16805;52.956;5.906;2023-07-24T00:28:51;18.20;99.90
29817;DHT22;16805;52.956;5.906;2023-07-24T00:31:17;18.20;99.90
29817;DHT22;16805;52.956;5.906;2023-07-24T00:33:43;18.20;99.90
29817;DHT22;16805;52.956;5.906;2023-07-24T00:36:08;18.20;99.90
29817;DHT22;16805;52.956;5.906;2023-07-24T00:38:34;18.20;99.90
29817;DHT22;16805;52.956;5.906;2023-07-24T00:41:00;18.20;99.90
29817;DHT22;16805;52.956;5.906;2023-07-24T00:43:26;18.30;99.90
29817;DHT22;16805;52.956;5.906;2023-07-24T00:45:52;18.30;99.90
29817;DHT22;16805;52.956;5.906;2023-07-24T00:48:19;18.30;99.90
29817;DHT22;16805;52.956;5.906;2023-07-24T00:50:45;18.30;99.90
29817;DHT22;16805;52.956;5.906;2023-07-24T00:53:12;18.30;99.90
29817;DHT22;16805;52.956;5.906;2023-07-24T00:55:38;18.30;99.90
29817;DHT22;16805;52.956;5.906;2023-07-24T00:58:05;18.20;99.90
29817;DHT22;16805;52.956;5.906;2023-07-24T01:00:31;18.30;99.90
29817;DHT22;16805;52.956;5.906;2023-07-24T01:02:59;18.30;99.90
29817;DHT22;16805;52.956;5.906;2023-07-24T01:05:25;18.20;99.90
29817;DHT22;16805;52.956;5.906;2023-07-24T01:07:52;18.20;99.90
29817;DHT22;16805;52.956;5.906;2023-07-24T01:10:20;18.20;99.90
29817;DHT22;16805;52.956;5.906;2023-07-24T01:13:08;18.20;99.90
29817;DHT22;16805;52.956;5.906;2023-07-24T01:15:43;18.20;99.90
29817;DHT22;16805;52.956;5.906;2023-07-24T01:18:11;18.20;99.90
29817;DHT22;16805;52.956;5.906;2023-07-24T01:20:44;18.20;99.90
29817;DHT22;16805;52.956;5.906;2023-07-24T01:28:21;18.10;99.90
29817;DHT22;16805;52.956;5.906;2023-07-24T01:30:47;18.10;99.90
29817;DHT22;16805;52.956;5.906;2023-07-24T01:33:13;18.10;99.90
29817;DHT22;16805;52.956;5.906;2023-07-24T01:35:41;18.10;99.90
29817;DHT22;16805;52.956;5.906;2023-07-24T01:38:13;18.00;99.90
29817;DHT22;16805;52.956;5.906;2023-07-24T01:40:42;18.00;99.90
29817;DHT22;16805;52.956;5.906;2023-07-24T01:43:09;17.90;99.90
29817;DHT22;16805;52.956;5.906;2023-07-24T01:45:35;17.90;99.90
29817;DHT22;16805;52.956;5.906;2023-07-24T01:48:05;17.90;99.90
29817;DHT22;16805;52.956;5.906;2023-07-24T01:50:31;17.90;99.90
29817;DHT22;16805;52.956;5.906;2023-07-24T01:52:57;17.90;99.90
29817;DHT22;16805;52.956;5.906;2023-07-24T01:55:23;17.90;99.90
29817;DHT22;16805;52.956;5.906;2023-07-24T01:57:48;17.90;99.90
29817;DHT22;16805;52.956;5.906;2023-07-24T02:00:14;17.90;99.90
29817;DHT22;16805;52.956;5.906;2023-07-24T02:02:40;17.80;99.90
29817;DHT22;16805;52.956;5.906;2023-07-24T02:05:06;17.80;99.90
29817;DHT22;16805;52.956;5.906;2023-07-24T02:07:31;17.80;99.90
29817;DHT22;16805;52.956;5.906;2023-07-24T02:09:57;17.80;99.90
29817;DHT22;16805;52.956;5.906;2023-07-24T02:12:23;17.80;99.90
29817;DHT22;16805;52.956;5.906;2023-07-24T02:14:49;17.80;99.90
29817;DHT22;16805;52.956;5.906;2023-07-24T02:17:17;17.70;99.90
29817;DHT22;16805;52.956;5.906;2023-07-24T02:19:42;17.70;99.90
29817;DHT22;16805;52.956;5.906;2023-07-24T02:22:08;17.80;99.90
29817;DHT22;16805;52.956;5.906;2023-07-24T02:24:34;17.70;99.90
29817;DHT22;16805;52.956;5.906;2023-07-24T02:27:00;17.70;99.90
29817;DHT22;16805;52.956;5.906;2023-07-24T02:29:25;17.70;99.90
29817;DHT22;16805;52.956;5.906;2023-07-24T02:31:52;17.70;99.90
29817;DHT22;16805;52.956;5.906;2023-07-24T02:34:18;17.70;99.90
29817;DHT22;16805;52.956;5.906;2023-07-24T02:36:44;17.80;99.90
29817;DHT22;16805;52.956;5.906;2023-07-24T02:39:09;17.80;99.90
29817;DHT22;16805;52.956;5.906;2023-07-24T02:41:35;17.80;99.90
29817;DHT22;16805;52.956;5.906;2023-07-24T02:44:02;17.80;99.90
29817;DHT22;16805;52.956;5.906;2023-07-24T02:46:29;17.80;99.90
29817;DHT22;16805;52.956;5.906;2023-07-24T02:48:56;17.80;99.90
29817;DHT22;16805;52.956;5.906;2023-07-24T02:51:21;17.80;99.90
29817;DHT22;16805;52.956;5.906;2023-07-24T02:53:50;17.80;99.90
29817;DHT22;16805;52.956;5.906;2023-07-24T02:56:15;17.80;99.90
29817;DHT22;16805;52.956;5.906;2023-07-24T02:58:41;17.80;99.90
29817;DHT22;16805;52.956;5.906;2023-07-24T03:01:07;17.80;99.90
29817;DHT22;16805;52.956;5.906;2023-07-24T03:03:34;17.90;99.90
29817;DHT22;16805;52.956;5.906;2023-07-24T03:05:59;17.90;99.90
29817;DHT22;16805;52.956;5.906;2023-07-24T03:08:25;17.90;99.90
29817;DHT22;16805;52.956;5.906;2023-07-24T03:10:51;17.90;99.90
29817;DHT22;16805;52.956;5.906;2023-07-24T03:13:17;17.90;99.90
29817;DHT22;16805;52.956;5.906;2023-07-24T03:15:42;17.90;99.90
29817;DHT22;16805;52.956;5.906;2023-07-24T03:18:08;17.90;99.90
29817;DHT22;16805;52.956;5.906;2023-07-24T03:20:34;17.90;99.90
29817;DHT22;16805;52.956;5.906;2023-07-24T03:22:59;17.90;99.90
29817;DHT22;16805;52.956;5.906;2023-07-24T03:25:32;17.90;99.90
29817;DHT22;16805;52.956;5.906;2023-07-24T03:28:01;17.90;99.90
29817;DHT22;16805;52.956;5.906;2023-07-24T03:30:31;17.90;99.90
29817;DHT22;16805;52.956;5.906;2023-07-24T03:32:57;17.90;99.90
29817;DHT22;16805;52.956;5.906;2023-07-24T03:35:23;17.90;99.90
29817;DHT22;16805;52.956;5.906;2023-07-24T03:37:49;18.00;99.90
29817;DHT22;16805;52.956;5.906;2023-07-24T03:40:14;17.90;99.90
29817;DHT22;16805;52.956;5.906;2023-07-24T03:42:42;17.90;99.90
29817;DHT22;16805;52.956;5.906;2023-07-24T03:45:08;17.90;99.90
29817;DHT22;16805;52.956;5.906;2023-07-24T03:47:34;17.90;99.90
29817;DHT22;16805;52.956;5.906;2023-07-24T03:50:00;17.90;99.90
29817;DHT22;16805;52.956;5.906;2023-07-24T03:52:25;17.90;99.90
29817;DHT22;16805;52.956;5.906;2023-07-24T03:54:52;17.90;99.90
29817;DHT22;16805;52.956;5.906;2023-07-24T03:57:18;17.90;99.90
29817;DHT22;16805;52.956;5.906;2023-07-24T03:59:44;17.90;99.90
29817;DHT22;16805;52.956;5.906;2023-07-24T04:02:09;17.90;99.90
29817;DHT22;16805;52.956;5.906;2023-07-24T04:04:41;17.90;99.90
29817;DHT22;16805;52.956;5.906;2023-07-24T04:07:07;17.90;99.90
29817;DHT22;16805;52.956;5.906;2023-07-24T04:09:32;17.90;99.90
29817;DHT22;16805;52.956;5.906;2023-07-24T04:11:58;17.90;99.90
29817;DHT22;16805;52.956;5.906;2023-07-24T04:14:25;17.90;99.90
29817;DHT22;16805;52.956;5.906;2023-07-24T04:16:50;17.90;99.90
29817;DHT22;16805;52.956;5.906;2023-07-24T04:19:16;17.90;99.90
29817;DHT22;16805;52.956;5.906;2023-07-24T04:21:42;17.90;99.90
29817;DHT22;16805;52.956;5.906;2023-07-24T04:24:08;17.90;99.90
29817;DHT22;16805;52.956;5.906;2023-07-24T04:26:33;17.90;99.90
29817;DHT22;16805;52.956;5.906;2023-07-24T04:28:59;17.90;99.90
29817;DHT22;16805;52.956;5.906;2023-07-24T04:31:25;17.90;99.90
29817;DHT22;16805;52.956;5.906;2023-07-24T04:33:50;17.90;99.90
29817;DHT22;16805;52.956;5.906;2023-07-24T04:36:16;17.90;99.90
29817;DHT22;16805;52.956;5.906;2023-07-24T04:38:42;17.90;99.90
29817;DHT22;16805;52.956;5.906;2023-07-24T04:41:07;17.90;99.90
29817;DHT22;16805;52.956;5.906;2023-07-24T04:43:33;17.90;99.90
29817;DHT22;16805;52.956;5.906;2023-07-24T04:45:59;17.90;99.90
29817;DHT22;16805;52.956;5.906;2023-07-24T04:48:25;17.90;99.90
29817;DHT22;16805;52.956;5.906;2023-07-24T04:50:55;17.90;99.90
29817;DHT22;16805;52.956;5.906;2023-07-24T04:53:21;17.90;99.90
29817;DHT22;16805;52.956;5.906;2023-07-24T04:55:47;17.90;99.90
29817;DHT22;16805;52.956;5.906;2023-07-24T04:58:14;17.90;99.90
29817;DHT22;16805;52.956;5.906;2023-07-24T05:00:40;17.90;99.90
29817;DHT22;16805;52.956;5.906;2023-07-24T05:03:06;17.90;99.90
29817;DHT22;16805;52.956;5.906;2023-07-24T05:05:36;17.90;99.90
29817;DHT22;16805;52.956;5.906;2023-07-24T05:08:02;17.90;99.90
29817;DHT22;16805;52.956;5.906;2023-07-24T05:10:28;17.90;99.90
29817;DHT22;16805;52.956;5.906;2023-07-24T05:12:54;18.00;99.90
29817;DHT22;16805;52.956;5.906;2023-07-24T05:15:22;18.00;99.90
29817;DHT22;16805;52.956;5.906;2023-07-24T05:17:48;18.00;99.90
29817;DHT22;16805;52.956;5.906;2023-07-24T05:20:15;17.90;99.90
29817;DHT22;16805;52.956;5.906;2023-07-24T05:22:40;18.00;99.90
29817;DHT22;16805;52.956;5.906;2023-07-24T05:25:06;18.00;99.90
29817;DHT22;16805;52.956;5.906;2023-07-24T05:27:32;18.00;99.90
29817;DHT22;16805;52.956;5.906;2023-07-24T05:29:58;18.00;99.90
29817;DHT22;16805;52.956;5.906;2023-07-24T05:32:23;18.00;99.90
29817;DHT22;16805;52.956;5.906;2023-07-24T05:34:49;18.00;99.90
29817;DHT22;16805;52.956;5.906;2023-07-24T05:37:15;18.00;99.90
29817;DHT22;16805;52.956;5.906;2023-07-24T05:39:40;18.00;99.90
29817;DHT22;16805;52.956;5.906;2023-07-24T05:42:08;18.00;99.90
29817;DHT22;16805;52.956;5.906;2023-07-24T05:44:35;18.00;99.90
29817;DHT22;16805;52.956;5.906;2023-07-24T05:47:02;18.00;99.90
29817;DHT22;16805;52.956;5.906;2023-07-24T05:49:28;18.00;99.90
29817;DHT22;16805;52.956;5.906;2023-07-24T05:51:54;18.00;99.90
29817;DHT22;16805;52.956;5.906;2023-07-24T05:54:20;18.00;99.90
29817;DHT22;16805;52.956;5.906;2023-07-24T05:56:45;18.00;99.90
29817;DHT22;16805;52.956;5.906;2023-07-24T05:59:11;18.00;99.90
29817;DHT22;16805;52.956;5.906;2023-07-24T06:01:40;18.10;99.90
29817;DHT22;16805;52.956;5.906;2023-07-24T06:04:06;18.10;99.90
29817;DHT22;16805;52.956;5.906;2023-07-24T06:06:33;18.10;99.90
29817;DHT22;16805;52.956;5.906;2023-07-24T06:08:58;18.10;99.90
29817;DHT22;16805;52.956;5.906;2023-07-24T06:11:24;18.10;99.90
29817;DHT22;16805;52.956;5.906;2023-07-24T06:13:51;18.10;99.90
29817;DHT22;16805;52.956;5.906;2023-07-24T06:16:18;18.10;99.90
29817;DHT22;16805;52.956;5.906;2023-07-24T06:18:44;18.10;99.90
29817;DHT22;16805;52.956;5.906;2023-07-24T06:21:10;18.20;99.90
29817;DHT22;16805;52.956;5.906;2023-07-24T06:23:35;18.20;99.90
29817;DHT22;16805;52.956;5.906;2023-07-24T06:26:01;18.20;99.90
29817;DHT22;16805;52.956;5.906;2023-07-24T06:28:27;18.20;99.90
29817;DHT22;16805;52.956;5.906;2023-07-24T06:30:54;18.20;99.90
29817;DHT22;16805;52.956;5.906;2023-07-24T06:33:20;18.30;99.90
29817;DHT22;16805;52.956;5.906;2023-07-24T06:35:48;18.30;99.90
29817;DHT22;16805;52.956;5.906;2023-07-24T06:38:14;18.30;99.90
29817;DHT22;16805;52.956;5.906;2023-07-24T06:40:40;18.30;99.90
29817;DHT22;16805;52.956;5.906;2023-07-24T06:43:06;18.30;99.90
29817;DHT22;16805;52.956;5.906;2023-07-24T06:45:32;18.30;99.90
29817;DHT22;16805;52.956;5.906;2023-07-24T06:47:57;18.30;99.90
29817;DHT22;16805;52.956;5.906;2023-07-24T06:50:23;18.30;99.90
29817;DHT22;16805;52.956;5.906;2023-07-24T06:52:49;18.40;99.90
29817;DHT22;16805;52.956;5.906;2023-07-24T06:55:16;18.40;99.90
29817;DHT22;16805;52.956;5.906;2023-07-24T06:57:42;18.40;99.90
29817;DHT22;16805;52.956;5.906;2023-07-24T07:00:08;18.40;99.90
29817;DHT22;16805;52.956;5.906;2023-07-24T07:02:37;18.40;99.90
29817;DHT22;16805;52.956;5.906;2023-07-24T07:05:03;18.40;99.90
29817;DHT22;16805;52.956;5.906;2023-07-24T07:07:29;18.50;99.90
29817;DHT22;16805;52.956;5.906;2023-07-24T07:09:55;18.50;99.90
29817;DHT22;16805;52.956;5.906;2023-07-24T07:12:20;18.50;99.90
29817;DHT22;16805;52.956;5.906;2023-07-24T07:14:46;18.50;99.90
29817;DHT22;16805;52.956;5.906;2023-07-24T07:17:12;18.50;99.90
29817;DHT22;16805;52.956;5.906;2023-07-24T07:19:37;18.60;99.90
29817;DHT22;16805;52.956;5.906;2023-07-24T07:22:03;18.60;99.90
29817;DHT22;16805;52.956;5.906;2023-07-24T07:24:29;18.70;99.90
29817;DHT22;16805;52.956;5.906;2023-07-24T07:26:55;18.70;99.90
29817;DHT22;16805;52.956;5.906;2023-07-24T07:29:21;18.70;99.90
29817;DHT22;16805;52.956;5.906;2023-07-24T07:31:47;18.70;99.90
29817;DHT22;16805;52.956;5.906;2023-07-24T07:34:12;18.80;99.90
29817;DHT22;16805;52.956;5.906;2023-07-24T07:36:38;18.80;99.90
29817;DHT22;16805;52.956;5.906;2023-07-24T07:39:04;18.80;99.90
29817;DHT22;16805;52.956;5.906;2023-07-24T07:41:31;18.80;99.90
29817;DHT22;16805;52.956;5.906;2023-07-24T07:43:57;18.80;99.90
29817;DHT22;16805;52.956;5.906;2023-07-24T07:46:23;18.80;99.90
29817;DHT22;16805;52.956;5.906;2023-07-24T07:48:48;18.90;99.90
29817;DHT22;16805;52.956;5.906;2023-07-24T07:51:14;18.90;99.90
29817;DHT22;16805;52.956;5.906;2023-07-24T07:53:40;18.90;99.90
29817;DHT22;16805;52.956;5.906;2023-07-24T07:56:06;18.90;99.90
29817;DHT22;16805;52.956;5.906;2023-07-24T07:58:32;18.90;99.90
29817;DHT22;16805;52.956;5.906;2023-07-24T08:00:58;18.90;99.90
29817;DHT22;16805;52.956;5.906;2023-07-24T08:03:23;19.00;99.90
29817;DHT22;16805;52.956;5.906;2023-07-24T08:05:49;19.00;99.90
29817;DHT22;16805;52.956;5.906;2023-07-24T08:08:15;19.00;99.90
29817;DHT22;16805;52.956;5.906;2023-07-24T08:10:41;19.10;99.90
29817;DHT22;16805;52.956;5.906;2023-07-24T08:13:07;19.10;99.90
29817;DHT22;16805;52.956;5.906;2023-07-24T08:15:37;19.10;99.90
29817;DHT22;16805;52.956;5.906;2023-07-24T08:18:06;19.20;99.90
29817;DHT22;16805;52.956;5.906;2023-07-24T08:20:36;19.20;99.90
29817;DHT22;16805;52.956;5.906;2023-07-24T08:23:02;19.20;99.90
29817;DHT22;16805;52.956;5.906;2023-07-24T08:25:28;19.30;99.90
29817;DHT22;16805;52.956;5.906;2023-07-24T08:27:54;19.30;99.90
29817;DHT22;16805;52.956;5.906;2023-07-24T08:30:19;19.40;99.90
29817;DHT22;16805;52.956;5.906;2023-07-24T08:32:45;19.40;99.90
29817;DHT22;16805;52.956;5.906;2023-07-24T08:35:11;19.50;99.90
29817;DHT22;16805;52.956;5.906;2023-07-24T08:37:37;19.60;99.90
29817;DHT22;16805;52.956;5.906;2023-07-24T08:40:03;19.60;99.90
29817;DHT22;16805;52.956;5.906;2023-07-24T08:42:29;19.80;99.90
29817;DHT22;16805;52.956;5.906;2023-07-24T08:44:57;19.80;99.90
29817;DHT22;16805;52.956;5.906;2023-07-24T08:47:24;19.90;99.90
29817;DHT22;16805;52.956;5.906;2023-07-24T08:49:50;20.00;99.90
29817;DHT22;16805;52.956;5.906;2023-07-24T08:52:17;20.10;99.90
29817;DHT22;16805;52.956;5.906;2023-07-24T08:54:43;20.20;99.90
29817;DHT22;16805;52.956;5.906;2023-07-24T08:57:09;20.30;99.90
29817;DHT22;16805;52.956;5.906;2023-07-24T08:59:36;20.50;99.90
29817;DHT22;16805;52.956;5.906;2023-07-24T09:02:02;20.70;99.90
29817;DHT22;16805;52.956;5.906;2023-07-24T09:04:28;20.90;99.90
29817;DHT22;16805;52.956;5.906;2023-07-24T09:06:56;21.00;99.90
29817;DHT22;16805;52.956;5.906;2023-07-24T09:09:23;21.10;99.90
29817;DHT22;16805;52.956;5.906;2023-07-24T09:11:52;21.20;99.90
29817;DHT22;16805;52.956;5.906;2023-07-24T09:14:22;21.20;99.90
29817;DHT22;16805;52.956;5.906;2023-07-24T09:16:48;21.20;99.90
29817;DHT22;16805;52.956;5.906;2023-07-24T09:19:18;21.20;99.90
29817;DHT22;16805;52.956;5.906;2023-07-24T09:21:44;21.20;99.90
29817;DHT22;16805;52.956;5.906;2023-07-24T09:24:14;21.30;99.90
29817;DHT22;16805;52.956;5.906;2023-07-24T09:26:53;21.40;99.90
29817;DHT22;16805;52.956;5.906;2023-07-24T09:29:19;21.40;99.90
29817;DHT22;16805;52.956;5.906;2023-07-24T09:31:45;21.40;99.90
29817;DHT22;16805;52.956;5.906;2023-07-24T09:34:16;21.30;99.90
29817;DHT22;16805;52.956;5.906;2023-07-24T09:36:42;21.40;99.90
29817;DHT22;16805;52.956;5.906;2023-07-24T09:39:08;21.50;99.90
29817;DHT22;16805;52.956;5.906;2023-07-24T09:41:36;21.60;99.90
29817;DHT22;16805;52.956;5.906;2023-07-24T09:44:02;21.70;99.90
29817;DHT22;16805;52.956;5.906;2023-07-24T09:46:28;21.80;99.90
29817;DHT22;16805;52.956;5.906;2023-07-24T09:48:56;22.00;99.90
29817;DHT22;16805;52.956;5.906;2023-07-24T09:51:23;22.10;99.90
29817;DHT22;16805;52.956;5.906;2023-07-24T09:53:55;22.30;99.90
29817;DHT22;16805;52.956;5.906;2023-07-24T09:56:22;22.50;99.90
29817;DHT22;16805;52.956;5.906;2023-07-24T09:58:49;22.70;99.90
29817;DHT22;16805;52.956;5.906;2023-07-24T10:01:20;22.90;99.90
29817;DHT22;16805;52.956;5.906;2023-07-24T10:03:49;23.00;99.90
29817;DHT22;16805;52.956;5.906;2023-07-24T10:06:16;23.10;99.90
29817;DHT22;16805;52.956;5.906;2023-07-24T10:08:43;23.20;99.90
29817;DHT22;16805;52.956;5.906;2023-07-24T10:11:13;23.30;99.90
29817;DHT22;16805;52.956;5.906;2023-07-24T10:13:40;23.40;99.90
29817;DHT22;16805;52.956;5.906;2023-07-24T10:16:06;23.40;99.90
29817;DHT22;16805;52.956;5.906;2023-07-24T10:18:41;23.40;99.90
29817;DHT22;16805;52.956;5.906;2023-07-24T10:21:09;23.40;99.90
29817;DHT22;16805;52.956;5.906;2023-07-24T10:23:36;23.40;99.90
29817;DHT22;16805;52.956;5.906;2023-07-24T10:26:06;23.40;99.90
29817;DHT22;16805;52.956;5.906;2023-07-24T10:28:35;23.40;99.90
29817;DHT22;16805;52.956;5.906;2023-07-24T10:31:08;23.50;99.90
29817;DHT22;16805;52.956;5.906;2023-07-24T10:33:46;23.60;99.90
29817;DHT22;16805;52.956;5.906;2023-07-24T10:36:19;23.60;99.90
29817;DHT22;16805;52.956;5.906;2023-07-24T10:38:46;23.50;99.90
29817;DHT22;16805;52.956;5.906;2023-07-24T10:41:12;23.40;99.90
29817;DHT22;16805;52.956;5.906;2023-07-24T10:43:46;23.40;99.90
29817;DHT22;16805;52.956;5.906;2023-07-24T10:46:12;23.30;99.90
29817;DHT22;16805;52.956;5.906;2023-07-24T10:48:42;23.30;99.90
29817;DHT22;16805;52.956;5.906;2023-07-24T10:51:10;23.30;99.90
29817;DHT22;16805;52.956;5.906;2023-07-24T10:53:37;23.30;99.90
29817;DHT22;16805;52.956;5.906;2023-07-24T10:56:04;23.40;99.90
29817;DHT22;16805;52.956;5.906;2023-07-24T10:58:30;23.40;99.90
29817;DHT22;16805;52.956;5.906;2023-07-24T11:00:59;23.40;99.90
29817;DHT22;16805;52.956;5.906;2023-07-24T11:03:25;23.40;99.90
29817;DHT22;16805;52.956;5.906;2023-07-24T11:05:52;23.30;99.90
29817;DHT22;16805;52.956;5.906;2023-07-24T11:08:20;23.20;99.90
29817;DHT22;16805;52.956;5.906;2023-07-24T11:10:53;23.20;99.90
29817;DHT22;16805;52.956;5.906;2023-07-24T11:13:24;23.20;99.90
29817;DHT22;16805;52.956;5.906;2023-07-24T11:15:51;23.30;99.90
29817;DHT22;16805;52.956;5.906;2023-07-24T11:18:18;23.30;99.90
29817;DHT22;16805;52.956;5.906;2023-07-24T11:20:54;23.10;99.90
29817;DHT22;16805;52.956;5.906;2023-07-24T11:23:21;23.10;99.90
29817;DHT22;16805;52.956;5.906;2023-07-24T11:25:49;23.00;99.90
29817;DHT22;16805;52.956;5.906;2023-07-24T11:28:15;23.00;99.90
29817;DHT22;16805;52.956;5.906;2023-07-24T11:30:41;22.90;99.90
29817;DHT22;16805;52.956;5.906;2023-07-24T11:33:10;22.90;99.90
29817;DHT22;16805;52.956;5.906;2023-07-24T11:35:36;22.70;99.90
29817;DHT22;16805;52.956;5.906;2023-07-24T11:38:05;22.60;99.90
29817;DHT22;16805;52.956;5.906;2023-07-24T11:43:05;22.40;99.90
29817;DHT22;16805;52.956;5.906;2023-07-24T11:45:31;22.40;99.90
29817;DHT22;16805;52.956;5.906;2023-07-24T11:47:56;22.30;99.90
29817;DHT22;16805;52.956;5.906;2023-07-24T11:50:23;22.20;99.90
29817;DHT22;16805;52.956;5.906;2023-07-24T11:52:50;22.10;99.90
29817;DHT22;16805;52.956;5.906;2023-07-24T11:55:18;22.10;99.90
29817;DHT22;16805;52.956;5.906;2023-07-24T11:58:04;22.00;99.90
29817;DHT22;16805;52.956;5.906;2023-07-24T12:00:33;21.90;99.90
29817;DHT22;16805;52.956;5.906;2023-07-24T12:03:01;21.80;99.90
29817;DHT22;16805;52.956;5.906;2023-07-24T12:05:29;21.70;99.90
29817;DHT22;16805;52.956;5.906;2023-07-24T12:07:55;21.70;99.90
29817;DHT22;16805;52.956;5.906;2023-07-24T12:10:27;21.60;99.90
29817;DHT22;16805;52.956;5.906;2023-07-24T12:12:54;21.50;99.90
29817;DHT22;16805;52.956;5.906;2023-07-24T12:15:20;21.30;99.90
29817;DHT22;16805;52.956;5.906;2023-07-24T12:17:46;21.20;99.90
29817;DHT22;16805;52.956;5.906;2023-07-24T12:20:11;21.10;99.90
29817;DHT22;16805;52.956;5.906;2023-07-24T12:22:38;21.10;99.90
29817;DHT22;16805;52.956;5.906;2023-07-24T12:25:05;21.10;99.90
29817;DHT22;16805;52.956;5.906;2023-07-24T12:27:31;21.10;99.90
29817;DHT22;16805;52.956;5.906;2023-07-24T12:29:57;21.00;99.90
29817;DHT22;16805;52.956;5.906;2023-07-24T12:32:23;21.10;99.90
29817;DHT22;16805;52.956;5.906;2023-07-24T12:34:50;21.10;99.90
29817;DHT22;16805;52.956;5.906;2023-07-24T12:37:19;21.10;99.90
29817;DHT22;16805;52.956;5.906;2023-07-24T12:39:46;21.20;99.90
29817;DHT22;16805;52.956;5.906;2023-07-24T12:42:12;21.30;99.90
29817;DHT22;16805;52.956;5.906;2023-07-24T12:44:38;21.40;99.90
29817;DHT22;16805;52.956;5.906;2023-07-24T12:47:04;21.40;99.90
29817;DHT22;16805;52.956;5.906;2023-07-24T12:49:30;21.30;99.90
29817;DHT22;16805;52.956;5.906;2023-07-24T12:51:56;21.30;99.90
29817;DHT22;16805;52.956;5.906;2023-07-24T12:54:22;21.30;99.90
29817;DHT22;16805;52.956;5.906;2023-07-24T12:56:49;21.20;99.90
29817;DHT22;16805;52.956;5.906;2023-07-24T12:59:15;21.20;99.90
29817;DHT22;16805;52.956;5.906;2023-07-24T13:01:41;21.20;99.90
29817;DHT22;16805;52.956;5.906;2023-07-24T13:04:07;21.20;99.90
29817;DHT22;16805;52.956;5.906;2023-07-24T13:06:33;21.10;99.90
29817;DHT22;16805;52.956;5.906;2023-07-24T13:08:59;21.10;99.90
29817;DHT22;16805;52.956;5.906;2023-07-24T13:11:25;21.20;99.90
29817;DHT22;16805;52.956;5.906;2023-07-24T13:13:51;21.20;99.90
29817;DHT22;16805;52.956;5.906;2023-07-24T13:16:17;21.20;99.90
29817;DHT22;16805;52.956;5.906;2023-07-24T13:18:43;21.20;99.90
29817;DHT22;16805;52.956;5.906;2023-07-24T13:21:08;21.20;99.90
29817;DHT22;16805;52.956;5.906;2023-07-24T13:23:34;21.20;99.90
29817;DHT22;16805;52.956;5.906;2023-07-24T13:26:00;21.20;99.90
29817;DHT22;16805;52.956;5.906;2023-07-24T13:28:26;21.20;99.90
29817;DHT22;16805;52.956;5.906;2023-07-24T13:30:52;21.20;99.90
29817;DHT22;16805;52.956;5.906;2023-07-24T13:33:17;21.10;99.90
29817;DHT22;16805;52.956;5.906;2023-07-24T13:35:44;21.10;99.90
29817;DHT22;16805;52.956;5.906;2023-07-24T13:38:10;21.10;99.90
29817;DHT22;16805;52.956;5.906;2023-07-24T13:40:37;21.10;99.90
29817;DHT22;16805;52.956;5.906;2023-07-24T13:43:02;21.20;99.90
29817;DHT22;16805;52.956;5.906;2023-07-24T13:45:29;21.20;99.90
29817;DHT22;16805;52.956;5.906;2023-07-24T13:47:56;21.20;99.90
29817;DHT22;16805;52.956;5.906;2023-07-24T13:50:22;21.20;99.90
29817;DHT22;16805;52.956;5.906;2023-07-24T13:52:48;21.20;99.90
29817;DHT22;16805;52.956;5.906;2023-07-24T13:55:14;21.20;99.90
29817;DHT22;16805;52.956;5.906;2023-07-24T13:57:40;21.20;99.90
29817;DHT22;16805;52.956;5.906;2023-07-24T14:00:06;21.20;99.90
29817;DHT22;16805;52.956;5.906;2023-07-24T14:02:32;21.30;99.90
29817;DHT22;16805;52.956;5.906;2023-07-24T14:04:58;21.30;99.90
29817;DHT22;16805;52.956;5.906;2023-07-24T14:07:24;21.30;99.90
29817;DHT22;16805;52.956;5.906;2023-07-24T14:09:50;21.30;99.90
29817;DHT22;16805;52.956;5.906;2023-07-24T14:12:16;21.30;99.90
29817;DHT22;16805;52.956;5.906;2023-07-24T14:14:41;21.20;99.90
29817;DHT22;16805;52.956;5.906;2023-07-24T14:17:07;21.20;99.90
29817;DHT22;16805;52.956;5.906;2023-07-24T14:19:33;21.10;99.90
29817;DHT22;16805;52.956;5.906;2023-07-24T14:21:59;21.10;99.90
29817;DHT22;16805;52.956;5.906;2023-07-24T14:24:25;21.10;99.90
29817;DHT22;16805;52.956;5.906;2023-07-24T14:26:51;21.10;99.90
29817;DHT22;16805;52.956;5.906;2023-07-24T14:29:16;21.10;99.90
29817;DHT22;16805;52.956;5.906;2023-07-24T14:31:43;21.10;99.90
29817;DHT22;16805;52.956;5.906;2023-07-24T14:34:09;21.00;99.90
29817;DHT22;16805;52.956;5.906;2023-07-24T14:36:40;21.00;99.90
29817;DHT22;16805;52.956;5.906;2023-07-24T14:39:06;20.80;99.90
29817;DHT22;16805;52.956;5.906;2023-07-24T14:41:31;20.80;99.90
29817;DHT22;16805;52.956;5.906;2023-07-24T14:43:57;20.60;99.90
29817;DHT22;16805;52.956;5.906;2023-07-24T14:46:23;20.60;99.90
29817;DHT22;16805;52.956;5.906;2023-07-24T14:48:49;20.40;99.90
29817;DHT22;16805;52.956;5.906;2023-07-24T14:51:15;20.30;99.90
29817;DHT22;16805;52.956;5.906;2023-07-24T14:53:40;20.20;99.90
29817;DHT22;16805;52.956;5.906;2023-07-24T14:56:06;20.10;99.90
29817;DHT22;16805;52.956;5.906;2023-07-24T14:58:32;20.00;99.90
29817;DHT22;16805;52.956;5.906;2023-07-24T15:00:59;19.90;99.90
29817;DHT22;16805;52.956;5.906;2023-07-24T15:03:24;19.80;99.90
29817;DHT22;16805;52.956;5.906;2023-07-24T15:05:50;19.70;99.90
29817;DHT22;16805;52.956;5.906;2023-07-24T15:08:17;19.70;99.90
29817;DHT22;16805;52.956;5.906;2023-07-24T15:10:43;19.60;99.90
29817;DHT22;16805;52.956;5.906;2023-07-24T15:13:10;19.50;99.90
29817;DHT22;16805;52.956;5.906;2023-07-24T15:15:36;19.40;99.90
29817;DHT22;16805;52.956;5.906;2023-07-24T15:18:02;19.40;99.90
29817;DHT22;16805;52.956;5.906;2023-07-24T15:20:27;19.30;99.90
29817;DHT22;16805;52.956;5.906;2023-07-24T15:22:53;19.30;99.90
29817;DHT22;16805;52.956;5.906;2023-07-24T15:25:20;19.30;99.90
29817;DHT22;16805;52.956;5.906;2023-07-24T15:27:46;19.30;99.90
29817;DHT22;16805;52.956;5.906;2023-07-24T15:30:12;19.30;99.90
29817;DHT22;16805;52.956;5.906;2023-07-24T15:32:37;19.40;99.90
29817;DHT22;16805;52.956;5.906;2023-07-24T15:35:04;19.40;99.90